Map

Track Data

SID SEASON NUMBER BASIN SUBBASIN NAME ISO_TIME NATURE LAT LON WMO_WIND WMO_PRES WMO_AGENCY TRACK_TYPE DIST2LAND LANDFALL IFLAG USA_AGENCY USA_ATCF_ID USA_LAT USA_LON USA_RECORD USA_STATUS USA_WIND USA_PRES USA_SSHS USA_R34_NE USA_R34_SE USA_R34_SW USA_R34_NW USA_R50_NE USA_R50_SE USA_R50_SW USA_R50_NW USA_R64_NE USA_R64_SE USA_R64_SW USA_R64_NW USA_POCI USA_ROCI USA_RMW USA_EYE TOKYO_LAT TOKYO_LON TOKYO_GRADE TOKYO_WIND TOKYO_PRES TOKYO_R50_DIR TOKYO_R50_LONG TOKYO_R50_SHORT TOKYO_R30_DIR TOKYO_R30_LONG TOKYO_R30_SHORT TOKYO_LAND CMA_LAT CMA_LON CMA_CAT CMA_WIND CMA_PRES HKO_LAT HKO_LON HKO_CAT HKO_WIND HKO_PRES NEWDELHI_LAT NEWDELHI_LON NEWDELHI_GRADE NEWDELHI_WIND NEWDELHI_PRES NEWDELHI_CI NEWDELHI_DP NEWDELHI_POCI REUNION_LAT REUNION_LON REUNION_TYPE REUNION_WIND REUNION_PRES REUNION_TNUM REUNION_CI REUNION_RMW REUNION_R34_NE REUNION_R34_SE REUNION_R34_SW REUNION_R34_NW REUNION_R50_NE REUNION_R50_SE REUNION_R50_SW REUNION_R50_NW REUNION_R64_NE REUNION_R64_SE REUNION_R64_SW REUNION_R64_NW BOM_LAT BOM_LON BOM_TYPE BOM_WIND BOM_PRES BOM_TNUM BOM_CI BOM_RMW BOM_R34_NE BOM_R34_SE BOM_R34_SW BOM_R34_NW BOM_R50_NE BOM_R50_SE BOM_R50_SW BOM_R50_NW BOM_R64_NE BOM_R64_SE BOM_R64_SW BOM_R64_NW BOM_ROCI BOM_POCI BOM_EYE BOM_POS_METHOD BOM_PRES_METHOD NADI_LAT NADI_LON NADI_CAT NADI_WIND NADI_PRES WELLINGTON_LAT WELLINGTON_LON WELLINGTON_WIND WELLINGTON_PRES DS824_LAT DS824_LON DS824_STAGE DS824_WIND DS824_PRES TD9636_LAT TD9636_LON TD9636_STAGE TD9636_WIND TD9636_PRES TD9635_LAT TD9635_LON TD9635_WIND TD9635_PRES TD9635_ROCI NEUMANN_LAT NEUMANN_LON NEUMANN_CLASS NEUMANN_WIND NEUMANN_PRES MLC_LAT MLC_LON MLC_CLASS MLC_WIND MLC_PRES USA_GUST BOM_GUST BOM_GUST_PER REUNION_GUST REUNION_GUST_PER USA_SEAHGT USA_SEARAD_NE USA_SEARAD_SE USA_SEARAD_SW USA_SEARAD_NW STORM_SPEED STORM_DIR
1987325S06050 1988 98 SI MM NOT_NAMED 1987-11-20 18:00:00 TS -6.00000 49.6000 main 684 672 O_________O_O_ jtwc_sh SH021988 -6.00000 49.6000 20 -1 -6.00000 49.6000 1 20 -6.00000 49.6000 TC 20 5 252
1987325S06050 1988 98 SI MM NOT_NAMED 1987-11-20 21:00:00 TS -6.08211 49.3497 main 672 660 P_________P_P_ SH021988 -6.08252 49.3500 22 -1 -6.08128 49.3491 1 22 -6.08252 49.3500 TC 22 5 248
1987325S06050 1988 98 SI MM NOT_NAMED 1987-11-21 00:00:00 TS -6.20000 49.1000 main 661 639 O_________O_O_ jtwc_sh SH021988 -6.20000 49.1000 25 -1 -6.20000 49.1000 1 25 -6.20000 49.1000 TC 25 6 239
1987325S06050 1988 98 SI MM NOT_NAMED 1987-11-21 03:00:00 TS -6.37925 48.8511 main 639 618 P_________P_P_ SH021988 -6.37749 48.8500 25 -1 -6.38278 48.8534 1 25 -6.37749 48.8500 TC 25 6 231
1987325S06050 1988 98 SI MM NOT_NAMED 1987-11-21 06:00:00 TS -6.60415 48.6023 main 619 598 O_________P_O_ jtwc_sh SH021988 -6.60000 48.6000 25 -1 -6.61244 48.6069 1 25 -6.60000 48.6000 TC 25 7 226
1987325S06050 1988 98 SI MM NOT_NAMED 1987-11-21 09:00:00 TS -6.85361 48.3573 main 589 572 P_________P_P_ SH021988 -6.84997 48.3575 25 -1 -6.86089 48.3568 1 25 -6.84997 48.3575 TC 25 7 225
1987325S06050 1988 98 SI MM NOT_NAMED 1987-11-21 12:00:00 TS -7.10000 48.1000 main 572 556 O_________O_O_ jtwc_sh SH021988 -7.10000 48.1000 25 -1 -7.10000 48.1000 1 25 -7.10000 48.1000 TC 25 7 230
1987325S06050 1988 98 SI MM NOT_NAMED 1987-11-21 15:00:00 TS -7.30510 47.8107 main 559 544 P_________P_P_ SH021988 -7.31501 47.8000 25 -1 -7.28528 47.8321 1 25 -7.31501 47.8000 TC 25 7 236
1987325S06050 1988 98 SI MM NOT_NAMED 1987-11-21 18:00:00 TS -7.48582 47.5191 main 547 541 O_________P_O_ jtwc_sh SH021988 -7.50000 47.5000 25 -1 -7.45746 47.5574 1 25 -7.50000 47.5000 TC 25 6 239
1987325S06050 1988 98 SI MM NOT_NAMED 1987-11-21 21:00:00 TS -7.63695 47.2546 main 545 533 P_________P_P_ SH021988 -7.64247 47.2424 25 -1 -7.62590 47.2789 1 25 -7.64247 47.2424 TC 25 6 239
1987325S06050 1988 98 SI MM NOT_NAMED 1987-11-22 00:00:00 TS -7.80000 47.0000 main 538 529 O_________O_O_ jtwc_sh SH021988 -7.80000 47.0000 25 -1 -7.80000 47.0000 1 25 -7.80000 47.0000 TC 25 6 231
1987325S06050 1988 98 SI MM NOT_NAMED 1987-11-22 03:00:00 TS -8.03493 46.7521 main 529 518 P_________P_P_ SH021988 -8.04997 46.7575 25 -1 -8.00486 46.7412 1 25 -8.04997 46.7575 TC 25 7 227
1987325S06050 1988 98 SI MM NOT_NAMED 1987-11-22 06:00:00 TS -8.27160 46.4933 main 518 515 O_________P_O_ jtwc_sh SH021988 -8.30000 46.5000 25 -1 -8.21479 46.4799 1 25 -8.30000 46.5000 TC 25 7 233
1987325S06050 1988 98 SI MM NOT_NAMED 1987-11-22 09:00:00 TS -8.44910 46.2062 main 528 520 P_________P_P_ SH021988 -8.46499 46.2075 25 -1 -8.41733 46.2037 1 25 -8.46499 46.2075 TC 25 7 241
1987325S06050 1988 98 SI MM NOT_NAMED 1987-11-22 12:00:00 TS -8.60000 45.9000 main 533 532 O_________O_O_ jtwc_sh SH021988 -8.60000 45.9000 25 -1 -8.60000 45.9000 1 25 -8.60000 45.9000 TC 25 7 243
1987325S06050 1988 98 SI MM NOT_NAMED 1987-11-22 15:00:00 TS -8.75517 45.5968 main 540 540 P_________P_P_ SH021988 -8.75741 45.6225 25 -1 -8.75069 45.5456 1 25 -8.75741 45.6225 TC 25 7 245
1987325S06050 1988 98 SI MM NOT_NAMED 1987-11-22 18:00:00 TS -8.89336 45.2550 main 553 508 O_________P_O_ jtwc_sh SH021988 -8.90000 45.3000 25 -1 -8.88010 45.1649 1 25 -8.90000 45.3000 TC 25 8 252
1987325S06050 1988 98 SI MM NOT_NAMED 1987-11-22 21:00:00 TS -9.00819 44.8306 main 498 453 P_________P_P_ SH021988 -9.01507 44.8575 25 -1 -8.99443 44.7768 1 25 -9.01507 44.8575 TC 25 9 256
1987325S06050 1988 98 SI MM NOT_NAMED 1987-11-23 00:00:00 TS -9.10000 44.4000 main 453 418 O_________O_O_ jtwc_sh SH021988 -9.10000 44.4000 25 -1 -9.10000 44.4000 1 25 -9.10000 44.4000 TC 25 8 259
1987325S06050 1988 98 SI MM NOT_NAMED 1987-11-23 03:00:00 TS -9.15855 44.0384 main 408 379 P_________P_P_ SH021988 -9.14244 44.0274 25 -1 -9.19078 44.0604 1 26 -9.14244 44.0274 TC 25 7 260
1987325S06050 1988 98 SI MM NOT_NAMED 1987-11-23 06:00:00 TS -9.22577 43.7116 main 379 344 O_________P_O_ jtwc_sh SH021988 -9.20000 43.7000 25 -1 -9.27730 43.7347 1 27 -9.20000 43.7000 TC 25 7 253
1987325S06050 1988 98 SI MM NOT_NAMED 1987-11-23 09:00:00 TS -9.34835 43.4055 main 344 305 P_________P_P_ SH021988 -9.33493 43.4000 27 -1 -9.37517 43.4166 1 28 -9.33493 43.4000 TC 27 7 246
1987325S06050 1988 98 SI MM NOT_NAMED 1987-11-23 12:00:00 TS -9.50000 43.1000 main 305 270 O_________O_O_ jtwc_sh SH021988 -9.50000 43.1000 30 -1 -9.50000 43.1000 1 30 -9.50000 43.1000 TC 30 7 245
1987325S06050 1988 98 SI MM NOT_NAMED 1987-11-23 15:00:00 TS -9.64576 42.7475 main 260 221 P_________P_P_ SH021988 -9.63501 42.7499 30 -1 -9.66727 42.7427 1 30 -9.63501 42.7499 TC 30 8 245
1987325S06050 1988 98 SI MM NOT_NAMED 1987-11-23 18:00:00 TS -9.82088 42.3967 main 221 181 O_________P_O_ jtwc_sh SH021988 -9.80000 42.4000 30 -1 -9.86265 42.3902 1 30 -9.80000 42.4000 TC 30 8 239
1987325S06050 1988 98 SI MM NOT_NAMED 1987-11-23 21:00:00 TS -10.0539 42.0693 main 177 138 P_________P_P_ SH021988 -10.0425 42.0701 30 -1 -10.0767 42.0677 1 30 -10.0425 42.0701 TC 30 8 231
1987325S06050 1988 98 SI MM NOT_NAMED 1987-11-24 00:00:00 TS -10.3000 41.8000 main 138 111 O_________O_O_ jtwc_sh SH021988 -10.3000 41.8000 30 -1 -10.3000 41.8000 1 30 -10.3000 41.8000 TC 30 6 224
1987325S06050 1988 98 SI MM NOT_NAMED 1987-11-24 03:00:00 TS -10.5099 41.6191 main 111 98 P_________P_P_ SH021988 -10.5000 41.6199 32 -1 -10.5298 41.6173 1 31 -10.5000 41.6199 TC 32 5 215
1987325S06050 1988 98 SI MM NOT_NAMED 1987-11-24 06:00:00 TS -10.7216 41.4966 main 98 87 O_________P_O_ jtwc_sh SH021988 -10.7000 41.5000 35 0 -10.7647 41.4898 1 32 -10.7000 41.5000 TC 35 5 206
1987325S06050 1988 98 SI MM NOT_NAMED 1987-11-24 09:00:00 TS -10.9691 41.3924 main 87 77 P_________P_P_ SH021988 -10.9575 41.3925 35 0 -10.9923 41.3924 1 33 -10.9575 41.3925 TC 35 5 202
1987325S06050 1988 98 SI MM NOT_NAMED 1987-11-24 12:00:00 TS -11.2000 41.3000 main 79 73 O_________O_O_ jtwc_sh SH021988 -11.2000 41.3000 35 0 -11.2000 41.3000 2 35 -11.2000 41.3000 TC 35 4 206
1987325S06050 1988 98 SI MM NOT_NAMED 1987-11-24 15:00:00 TS -11.3631 41.1966 main 76 65 P_________P_P_ SH021988 -11.3650 41.2075 37 0 -11.3594 41.1749 2 36 -11.3650 41.2075 TC 37 4 215
1987325S06050 1988 98 SI MM NOT_NAMED 1987-11-24 18:00:00 TS -11.5000 41.0833 main 66 49 O_________P_O_ jtwc_sh SH021988 -11.5000 41.1000 40 0 -11.5000 41.0498 2 37 -11.5000 41.1000 TC 40 4 222
1987325S06050 1988 98 SI MM NOT_NAMED 1987-11-24 21:00:00 TS -11.6419 40.9416 main 49 31 P_________P_P_ SH021988 -11.6425 40.9500 40 0 -11.6406 40.9249 2 38 -11.6425 40.9500 TC 40 4 223
1987325S06050 1988 98 SI MM NOT_NAMED 1987-11-25 00:00:00 TS -11.8000 40.8000 main 31 10 O_________O_O_ jtwc_sh SH021988 -11.8000 40.8000 40 0 -11.8000 40.8000 2 40 -11.8000 40.8000 TC 40 4 215
1987325S06050 1988 98 SI MM NOT_NAMED 1987-11-25 03:00:00 TS -11.9871 40.6916 main 10 10 P_________P_P_ SH021988 -11.9850 40.7000 37 0 -11.9912 40.6749 2 37 -11.9850 40.7000 TC 37 5 208
1987325S06050 1988 98 SI MM NOT_NAMED 1987-11-25 06:00:00 TS -12.2017 40.5833 main 10 0 O_________P_O_ jtwc_sh SH021988 -12.2000 40.6000 35 0 -12.2050 40.5499 2 35 -12.2000 40.6000 TC 35 5 208
1987325S06050 1988 98 SI MM NOT_NAMED 1987-11-25 09:00:00 TS -12.4421 40.4466 main 0 0 P_________P_P_ SH021988 -12.4425 40.4575 32 -1 -12.4412 40.4249 2 32 -12.4425 40.4575 TC 32 6 209
1987325S06050 1988 98 SI MM NOT_NAMED 1987-11-25 12:00:00 TS -12.7000 40.3000 main 0 0 O_________O_O_ jtwc_sh SH021988 -12.7000 40.3000 30 -1 -12.7000 40.3000 1 30 -12.7000 40.3000 TC 30 6 210
1987325S06050 1988 98 SI MM NOT_NAMED 1987-11-25 15:00:00 TS -12.9499 40.1515 main 0 0 P_________P_P_ SH021988 -12.9350 40.1425 27 -1 -12.9795 40.1695 1 28 -12.9350 40.1425 TC 27 6 208
1987325S06050 1988 98 SI MM NOT_NAMED 1987-11-25 18:00:00 TS -13.2265 40.0133 main 0 0 O_________P_O_ jtwc_sh SH021988 -13.2000 40.0000 25 -1 -13.2795 40.0398 1 27 -13.2000 40.0000 TC 25 7 202
1987325S06050 1988 98 SI MM NOT_NAMED 1987-11-25 21:00:00 TS -13.5582 39.9001 main 0 0 P_________P_P_ SH021988 -13.5425 39.8925 25 -1 -13.5898 39.9152 1 26 -13.5425 39.8925 TC 25 7 197
1987325S06050 1988 98 SI MM NOT_NAMED 1987-11-26 00:00:00 TS -13.9000 39.8000 main 0 0 O_________O_O_ jtwc_sh SH021988 -13.9000 39.8000 25 -1 -13.9000 39.8000 1 25 -13.9000 39.8000 TC 25 7 197
1987325S06050 1988 98 SI MM NOT_NAMED 1987-11-26 03:00:00 TS -14.2109 39.7006 main 0 0 P_________P_P_ SH021988 -14.2150 39.7025 22 -1 -14.2026 39.6966 1 22 -14.2150 39.7025 TC 22 6 198
1987325S06050 1988 98 SI MM NOT_NAMED 1987-11-26 06:00:00 TS -14.5000 39.6000 main 0 O_________O_O_ jtwc_sh SH021988 -14.5000 39.6000 20 -1 -14.5000 39.6000 1 20 -14.5000 39.6000 TC 20 6 198

About IBTrACS Database

This database is a web-friendly format of International Best Track Archive for Climate Stewardship (IBTrACS), a global best track data archive curated by NOAA dating back to 1842.

Updated: 2021-11-26